Terminal Aerodrome Forecast
Issued by NWS

Home | Current Version | Previous Version | Text Only | Print | Product List | Glossary On
Versions: 1 2 3 4 5 6 7 8 9 10 11 12 13 14
046
FTUS41 KLWX 252331
TAFMTN
TAF
KMTN 252331Z 2600/2624 29014G28KT P6SM BKN060
     FM260600 29014G24KT P6SM FEW045
     FM262100 28012KT P6SM FEW250
      AMD NOT SKED 2602/2612=

USA.gov is the U.S. government's official web portal to all federal, state and local government web resources and services.